Time;durP1;ratioP1;P1;durP2;ratioP2;P2;SDS_P1;SDS_P2;PMS_P1;PMS_P2;Temp;Humidity;BMP_temperature;BMP_pressure;BME280_temperature;BME280_humidity;BME280_pressure;Samples;Min_cycle;Max_cycle;Signal;HPM_P1;HPM_P2
2022/01/10 00:00:51;;;;;;;49.87;26.33;;;;;;;7.47;100.00;98041.56;5030968;28;20670;-69
2022/01/10 00:03:18;;;;;;;51.77;26.77;;;;;;;7.46;100.00;98040.72;5030714;28;20202;-70
2022/01/10 00:05:45;;;;;;;53.77;28.87;;;;;;;7.49;100.00;98069.00;5030847;28;20193;-70
2022/01/10 00:08:14;;;;;;;58.97;27.70;;;;;;;7.29;100.00;98062.06;5030795;28;20201;-69
2022/01/10 00:10:44;;;;;;;61.23;28.33;;;;;;;7.32;100.00;98057.69;5030329;28;20200;-69
2022/01/10 00:13:11;;;;;;;56.63;28.10;;;;;;;7.27;100.00;98058.69;5030645;28;20284;-70
2022/01/10 00:15:39;;;;;;;52.40;25.60;;;;;;;7.40;100.00;98051.31;5030039;28;20685;-69
2022/01/10 00:18:06;;;;;;;52.40;27.43;;;;;;;7.43;100.00;98064.09;5030184;28;20207;-69
2022/01/10 00:20:33;;;;;;;51.30;26.50;;;;;;;7.34;100.00;98071.31;5030161;28;20201;-69
2022/01/10 00:23:00;;;;;;;52.60;26.73;;;;;;;7.16;100.00;98066.00;5030443;28;20573;-69
2022/01/10 00:25:27;;;;;;;54.57;26.27;;;;;;;7.15;100.00;98064.31;5030178;28;20203;-69
2022/01/10 00:27:56;;;;;;;55.07;26.23;;;;;;;7.21;100.00;98063.25;5030034;28;20292;-70
2022/01/10 00:30:25;;;;;;;50.23;26.70;;;;;;;7.14;100.00;98065.22;5030339;28;20207;-68
2022/01/10 00:32:53;;;;;;;61.30;26.97;;;;;;;7.09;100.00;98069.72;5030620;28;20208;-68
2022/01/10 00:35:21;;;;;;;54.33;26.97;;;;;;;6.96;100.00;98072.81;5033779;28;20220;-69
2022/01/10 00:37:48;;;;;;;55.77;25.80;;;;;;;6.93;100.00;98059.13;5034265;28;20205;-61
2022/01/10 00:40:17;;;;;;;48.77;24.17;;;;;;;6.92;100.00;98062.59;5034113;28;20209;-61
2022/01/10 00:42:52;;;;;;;55.10;25.60;;;;;;;6.91;100.00;98058.34;5034170;28;20596;-60
2022/01/10 00:45:25;;;;;;;55.33;26.47;;;;;;;6.99;100.00;98052.06;5033833;28;20209;-61
2022/01/10 00:47:52;;;;;;;54.70;24.73;;;;;;;7.06;100.00;98049.19;5033966;28;20207;-69
2022/01/10 00:50:20;;;;;;;51.97;24.93;;;;;;;6.98;100.00;98040.06;5034064;28;20650;-69
2022/01/10 00:52:47;;;;;;;47.77;24.07;;;;;;;6.75;100.00;98030.63;5034722;28;20292;-69
2022/01/10 00:55:14;;;;;;;57.00;24.43;;;;;;;6.78;100.00;98044.22;5034168;28;20628;-61
2022/01/10 00:57:41;;;;;;;54.47;24.70;;;;;;;6.95;100.00;98041.00;5033583;28;20193;-62
2022/01/10 01:00:11;;;;;;;52.37;24.50;;;;;;;6.92;100.00;98041.13;5033572;28;20205;-62
2022/01/10 01:02:39;;;;;;;50.73;24.83;;;;;;;6.91;100.00;98039.44;5033553;28;20212;-61
2022/01/10 01:05:09;;;;;;;55.23;24.53;;;;;;;6.92;100.00;98030.81;5033608;28;20199;-61
2022/01/10 01:07:37;;;;;;;49.13;23.53;;;;;;;7.05;100.00;98023.44;5033915;28;20657;-67
2022/01/10 01:10:24;;;;;;;48.50;24.53;;;;;;;7.14;100.00;98025.66;5033586;28;20208;-68
2022/01/10 01:12:55;;;;;;;48.23;24.43;;;;;;;6.98;100.00;98001.38;5033846;28;20642;-69
2022/01/10 01:15:25;;;;;;;50.60;24.37;;;;;;;7.21;100.00;98021.97;5033335;28;20225;-61
2022/01/10 01:18:12;;;;;;;45.43;23.27;;;;;;;7.08;100.00;98002.69;5033354;28;20288;-61
2022/01/10 01:24:00;;;;;;;51.53;23.93;;;;;;;7.09;100.00;98015.53;5033362;28;20197;-69
2022/01/10 01:26:18;;;;;;;49.23;24.20;;;;;;;7.10;100.00;98001.75;5033430;28;20193;-61
2022/01/10 01:28:45;;;;;;;44.13;22.50;;;;;;;7.15;100.00;98006.72;5032986;28;20288;-61
2022/01/10 01:31:12;;;;;;;41.03;21.50;;;;;;;7.16;100.00;98001.50;5033035;28;20296;-62
2022/01/10 01:33:40;;;;;;;39.90;20.93;;;;;;;7.17;100.00;97986.84;5033060;28;20201;-61
2022/01/10 01:36:08;;;;;;;46.47;21.80;;;;;;;7.18;100.00;97997.13;5032680;28;20731;-61
2022/01/10 01:38:35;;;;;;;41.83;21.50;;;;;;;7.07;100.00;97972.63;5032803;28;20280;-62
2022/01/10 01:41:19;;;;;;;43.47;21.37;;;;;;;7.14;100.00;97994.72;5032952;28;20224;-61
2022/01/10 01:43:47;;;;;;;50.23;21.43;;;;;;;7.22;100.00;97993.50;5033013;28;20197;-62
2022/01/10 01:46:14;;;;;;;44.13;21.83;;;;;;;7.16;100.00;98005.81;5032492;28;20715;-62
2022/01/10 01:48:43;;;;;;;41.43;20.93;;;;;;;7.33;100.00;97994.84;5032709;28;20233;-60
2022/01/10 01:51:10;;;;;;;39.83;20.90;;;;;;;7.28;100.00;97992.44;5032680;28;20603;-62
2022/01/10 01:53:38;;;;;;;40.67;21.13;;;;;;;7.23;100.00;97990.03;5032790;28;20258;-60
2022/01/10 01:56:06;;;;;;;37.83;20.87;;;;;;;7.16;100.00;97990.34;5032757;28;20609;-61
2022/01/10 01:58:35;;;;;;;41.40;21.63;;;;;;;7.19;100.00;97990.22;5032809;28;20586;-68
2022/01/10 02:01:02;;;;;;;40.97;22.50;;;;;;;7.19;100.00;97980.75;5032596;28;20259;-61
2022/01/10 02:03:33;;;;;;;45.20;23.13;;;;;;;7.16;100.00;97987.75;5032367;28;20194;-60
2022/01/10 02:06:01;;;;;;;50.27;23.27;;;;;;;7.17;100.00;97986.84;5032402;28;20196;-60
2022/01/10 02:08:28;;;;;;;44.97;22.87;;;;;;;7.12;100.00;97981.03;5032353;28;20685;-61
2022/01/10 02:10:55;;;;;;;40.17;21.50;;;;;;;7.14;100.00;97985.22;5032251;28;20201;-60
2022/01/10 02:13:22;;;;;;;41.93;23.17;;;;;;;7.05;100.00;97985.59;5032198;28;20201;-61
2022/01/10 02:15:56;;;;;;;52.60;24.97;;;;;;;7.08;100.00;97989.81;5032333;28;20231;-61
2022/01/10 02:18:24;;;;;;;50.30;26.27;;;;;;;7.03;100.00;97989.97;5032346;28;20292;-60
2022/01/10 02:20:52;;;;;;;45.77;22.93;;;;;;;7.01;100.00;97994.34;5032312;28;20208;-68
2022/01/10 02:23:20;;;;;;;45.30;22.07;;;;;;;7.02;100.00;97990.03;5032264;28;20207;-61
2022/01/10 02:25:49;;;;;;;49.00;24.77;;;;;;;7.02;100.00;97980.53;5032158;28;20197;-60
2022/01/10 02:28:16;;;;;;;52.47;24.60;;;;;;;7.01;100.00;97981.44;5032011;28;20207;-61
2022/01/10 02:30:43;;;;;;;53.60;25.97;;;;;;;7.02;100.00;97975.38;5031758;28;20197;-67
2022/01/10 02:33:10;;;;;;;51.13;24.50;;;;;;;7.15;100.00;97981.75;5032173;28;20205;-68
2022/01/10 02:35:47;;;;;;;52.03;24.57;;;;;;;7.16;100.00;97967.94;5031942;28;20316;-69
2022/01/10 02:38:15;;;;;;;50.30;23.93;;;;;;;7.23;100.00;97984.84;5032109;28;20201;-60
2022/01/10 02:40:44;;;;;;;50.07;24.50;;;;;;;6.98;100.00;97978.16;5031772;28;20292;-61
2022/01/10 02:43:11;;;;;;;49.03;23.33;;;;;;;6.86;100.00;97970.00;5031783;28;20237;-68
2022/01/10 02:45:38;;;;;;;50.77;23.47;;;;;;;6.86;100.00;97969.16;5032045;28;20292;-67
2022/01/10 02:48:06;;;;;;;55.07;24.73;;;;;;;7.05;100.00;97967.53;5031843;28;20685;-69
2022/01/10 02:50:33;;;;;;;49.57;24.00;;;;;;;7.16;100.00;97967.94;5032057;28;20653;-69
2022/01/10 02:53:00;;;;;;;48.97;25.20;;;;;;;7.15;100.00;97975.75;5031576;28;20198;-68
2022/01/10 02:55:28;;;;;;;44.37;24.23;;;;;;;7.02;100.00;97969.38;5031754;28;20221;-61
2022/01/10 02:57:55;;;;;;;50.90;23.87;;;;;;;6.86;100.00;97945.94;5030791;28;20283;-61
2022/01/10 03:00:24;;;;;;;52.13;24.33;;;;;;;6.95;100.00;97975.69;5031439;28;20197;-67
2022/01/10 03:02:53;;;;;;;52.07;24.13;;;;;;;7.09;100.00;97979.44;5031534;28;20197;-67
2022/01/10 03:05:22;;;;;;;48.87;24.83;;;;;;;7.21;100.00;97968.63;5031805;28;20198;-68
2022/01/10 03:07:51;;;;;;;48.33;22.83;;;;;;;7.23;100.00;97968.53;5031682;28;20211;-68
2022/01/10 03:10:18;;;;;;;47.40;22.33;;;;;;;7.20;100.00;97972.09;5031502;28;20197;-69
2022/01/10 03:12:48;;;;;;;40.00;21.00;;;;;;;7.22;100.00;97962.53;5031408;28;20193;-61
2022/01/10 03:15:14;;;;;;;39.97;21.70;;;;;;;7.26;100.00;97969.25;5031467;28;20225;-69
2022/01/10 03:17:41;;;;;;;42.80;22.33;;;;;;;7.33;100.00;97975.03;5031833;28;20205;-68
2022/01/10 03:20:10;;;;;;;43.80;22.00;;;;;;;7.33;100.00;97972.44;5031371;28;20712;-61
2022/01/10 03:22:37;;;;;;;46.27;21.97;;;;;;;7.33;100.00;97974.19;5031048;28;20193;-68
2022/01/10 03:25:05;;;;;;;47.87;22.63;;;;;;;7.32;100.00;97981.09;5031271;28;20198;-69
2022/01/10 03:27:32;;;;;;;43.10;21.60;;;;;;;7.27;100.00;97980.44;5031029;28;20659;-68
2022/01/10 03:30:01;;;;;;;46.73;22.27;;;;;;;7.23;100.00;97976.28;5031289;28;20287;-68
2022/01/10 03:32:28;;;;;;;51.77;23.60;;;;;;;7.19;100.00;97979.91;5031406;28;20198;-69
2022/01/10 03:34:57;;;;;;;48.00;22.50;;;;;;;7.14;100.00;97980.06;5031187;28;20203;-68
2022/01/10 03:37:24;;;;;;;44.53;23.57;;;;;;;7.05;100.00;97951.22;5031231;28;20226;-69
2022/01/10 03:39:51;;;;;;;46.17;23.13;;;;;;;7.34;100.00;97988.75;5030979;28;20606;-69
2022/01/10 03:42:18;;;;;;;43.40;22.33;;;;;;;7.20;100.00;97995.31;5031593;28;20646;-69
2022/01/10 03:44:45;;;;;;;41.10;21.07;;;;;;;7.15;100.00;97998.97;5031040;28;20300;-61
2022/01/10 03:47:13;;;;;;;41.67;21.93;;;;;;;7.22;100.00;97998.66;5030524;28;20197;-60
2022/01/10 03:49:40;;;;;;;51.40;23.40;;;;;;;7.23;100.00;98008.06;5030933;28;20244;-61
2022/01/10 03:52:07;;;;;;;46.33;23.67;;;;;;;7.22;100.00;98013.31;5030478;28;20541;-61
2022/01/10 03:54:34;;;;;;;51.20;24.50;;;;;;;7.04;100.00;97991.66;5030349;28;20587;-61
2022/01/10 03:57:01;;;;;;;50.37;24.07;;;;;;;7.16;100.00;98022.13;5030420;28;20227;-61
2022/01/10 03:59:28;;;;;;;46.57;24.27;;;;;;;7.32;100.00;98016.38;5030653;28;20205;-61
2022/01/10 04:01:55;;;;;;;48.67;25.17;;;;;;;7.30;100.00;98019.03;5004181;28;20198;-60
2022/01/10 04:04:24;;;;;;;49.70;26.27;;;;;;;7.39;100.00;98015.22;4998526;28;20194;-61
2022/01/10 04:06:51;;;;;;;50.53;25.47;;;;;;;7.39;100.00;98012.66;5002253;28;20196;-61
2022/01/10 04:09:19;;;;;;;52.47;25.70;;;;;;;7.46;100.00;98012.31;5009070;28;20200;-62
2022/01/10 04:11:46;;;;;;;52.40;26.73;;;;;;;7.47;100.00;98016.59;5009251;28;20194;-62
2022/01/10 04:14:13;;;;;;;50.63;24.93;;;;;;;7.45;100.00;98020.16;5009037;28;20236;-62
2022/01/10 04:16:40;;;;;;;49.13;24.67;;;;;;;7.45;100.00;98018.38;5008432;28;20228;-62
2022/01/10 04:19:09;;;;;;;44.83;23.03;;;;;;;7.45;100.00;98028.72;5009076;28;20268;-63
2022/01/10 04:21:37;;;;;;;40.70;22.20;;;;;;;7.27;100.00;98001.91;5009058;28;20281;-62
2022/01/10 04:24:04;;;;;;;43.10;21.37;;;;;;;7.46;100.00;98024.38;5008772;28;20196;-61
2022/01/10 04:26:31;;;;;;;44.47;22.53;;;;;;;7.43;100.00;98029.69;5006941;28;20198;-61
2022/01/10 04:28:58;;;;;;;55.47;25.93;;;;;;;7.50;100.00;98033.72;5009293;28;20204;-62
2022/01/10 04:31:26;;;;;;;65.03;32.20;;;;;;;7.60;100.00;98032.44;5008850;28;20673;-61
2022/01/10 04:33:52;;;;;;;84.90;45.40;;;;;;;7.48;100.00;98032.91;5009021;28;20587;-61
2022/01/10 04:36:19;;;;;;;84.30;42.37;;;;;;;7.44;100.00;98024.47;5008601;28;20769;-59
2022/01/10 04:38:48;;;;;;;70.00;34.80;;;;;;;7.48;100.00;98031.19;5008630;28;20194;-65
2022/01/10 04:41:15;;;;;;;68.20;36.97;;;;;;;7.51;100.00;98028.50;5009110;28;20198;-65
2022/01/10 04:43:42;;;;;;;68.33;34.53;;;;;;;7.64;100.00;98027.09;5008600;28;20197;-64
2022/01/10 04:46:09;;;;;;;55.40;30.07;;;;;;;7.73;100.00;98035.34;5009462;28;20198;-65
2022/01/10 04:48:36;;;;;;;53.03;26.67;;;;;;;7.67;100.00;98033.03;5010135;28;20572;-64
2022/01/10 04:51:13;;;;;;;46.40;24.30;;;;;;;7.66;100.00;98021.88;5010235;28;20689;-59
2022/01/10 04:53:42;;;;;;;57.37;26.77;;;;;;;7.73;100.00;98030.19;5009867;28;20248;-57
2022/01/10 04:56:10;;;;;;;66.13;33.53;;;;;;;7.66;100.00;98029.63;5009580;28;20637;-59
2022/01/10 04:58:37;;;;;;;61.43;32.13;;;;;;;7.69;100.00;98039.81;5010031;28;20694;-71
2022/01/10 05:01:06;;;;;;;52.30;28.20;;;;;;;7.70;100.00;98036.31;5009689;28;20201;-70
2022/01/10 05:03:33;;;;;;;50.80;28.20;;;;;;;7.74;100.00;98032.72;5010128;28;20204;-71
2022/01/10 05:06:00;;;;;;;47.97;26.47;;;;;;;7.72;100.00;98039.69;5009877;28;20197;-71
2022/01/10 05:08:27;;;;;;;53.13;27.80;;;;;;;7.74;100.00;98040.47;5010016;28;20577;-70
2022/01/10 05:10:55;;;;;;;53.70;28.87;;;;;;;7.75;100.00;98042.16;5010754;28;20585;-71
2022/01/10 05:13:24;;;;;;;57.30;29.77;;;;;;;7.70;100.00;98046.66;5010745;28;20290;-62
2022/01/10 05:15:52;;;;;;;58.73;30.63;;;;;;;7.77;100.00;98045.50;5009721;28;20222;-62
2022/01/10 05:18:21;;;;;;;54.63;29.43;;;;;;;7.76;100.00;98048.16;5009801;28;20206;-62
2022/01/10 05:20:50;;;;;;;62.37;29.77;;;;;;;7.80;100.00;98047.09;5012221;28;20224;-62
2022/01/10 05:23:17;;;;;;;69.37;32.30;;;;;;;7.78;100.00;98044.63;5013445;28;20208;-63
2022/01/10 05:25:44;;;;;;;61.63;30.43;;;;;;;7.80;100.00;98050.53;5013609;28;20592;-70
2022/01/10 05:28:13;;;;;;;62.10;31.70;;;;;;;7.85;100.00;98048.63;5014002;28;20594;-70
2022/01/10 05:30:42;;;;;;;61.27;29.20;;;;;;;7.70;100.00;98054.41;5013597;28;20619;-61
2022/01/10 05:33:09;;;;;;;59.70;30.47;;;;;;;7.68;100.00;98047.59;5013455;28;20747;-61
2022/01/10 05:35:39;;;;;;;63.50;30.23;;;;;;;7.45;100.00;98064.03;5013108;28;20651;-62
2022/01/10 05:38:06;;;;;;;61.13;29.23;;;;;;;7.46;100.00;98061.38;5013471;28;20209;-61
2022/01/10 05:40:34;;;;;;;59.03;29.47;;;;;;;7.28;100.00;98068.09;5013242;28;20202;-62
2022/01/10 05:43:00;;;;;;;65.57;31.37;;;;;;;7.27;100.00;98073.31;5012982;28;20570;-58
2022/01/10 05:45:28;;;;;;;66.07;31.47;;;;;;;7.32;100.00;98060.25;5012925;28;20200;-62
2022/01/10 05:47:56;;;;;;;64.43;31.80;;;;;;;7.37;100.00;98066.06;5013225;28;20237;-62
2022/01/10 05:50:33;;;;;;;67.27;31.33;;;;;;;7.41;100.00;98076.22;5012925;28;20293;-62
2022/01/10 05:53:01;;;;;;;68.17;30.90;;;;;;;7.44;100.00;98080.44;5012952;28;20208;-62
2022/01/10 05:55:28;;;;;;;65.33;29.67;;;;;;;7.32;100.00;98079.16;5013196;28;20578;-62
2022/01/10 05:57:56;;;;;;;67.30;31.40;;;;;;;7.23;100.00;98067.44;5012823;28;20236;-60
2022/01/10 06:00:23;;;;;;;69.47;32.20;;;;;;;7.34;100.00;98076.50;5010180;28;20601;-59
2022/01/10 06:02:50;;;;;;;64.93;30.83;;;;;;;7.28;100.00;98065.53;5017982;28;20233;-62
2022/01/10 06:05:19;;;;;;;59.80;27.10;;;;;;;7.44;100.00;98075.25;5021065;28;20229;-62
2022/01/10 06:07:46;;;;;;;62.73;29.67;;;;;;;7.46;100.00;98084.59;5019728;28;20233;-62
2022/01/10 06:10:13;;;;;;;57.00;26.57;;;;;;;7.55;100.00;98088.59;5017321;28;20622;-69
2022/01/10 06:12:40;;;;;;;53.70;25.13;;;;;;;7.68;100.00;98091.50;5020975;28;20229;-69
2022/01/10 06:15:08;;;;;;;53.80;25.50;;;;;;;7.66;100.00;98096.75;5019733;28;20599;-69
2022/01/10 06:17:35;;;;;;;55.87;25.47;;;;;;;7.67;100.00;98101.03;5018251;28;20229;-69
2022/01/10 06:20:02;;;;;;;48.53;23.33;;;;;;;7.50;100.00;98064.69;5011802;28;20232;-69
2022/01/10 06:22:30;;;;;;;47.13;23.57;;;;;;;7.53;100.00;98083.47;5012226;28;20603;-68
2022/01/10 06:24:58;;;;;;;48.23;21.07;;;;;;;7.75;100.00;98100.69;5012184;28;20384;-69
2022/01/10 06:27:25;;;;;;;50.87;23.07;;;;;;;7.72;100.00;98098.22;5006268;28;20309;-70
2022/01/10 06:29:52;;;;;;;48.93;23.43;;;;;;;7.76;100.00;98102.38;5005026;28;20204;-61
2022/01/10 06:32:19;;;;;;;46.93;23.90;;;;;;;7.78;100.00;98093.69;5012127;28;20202;-60
2022/01/10 06:34:46;;;;;;;52.67;24.00;;;;;;;7.72;100.00;98085.31;5003192;28;20198;-61
2022/01/10 06:37:13;;;;;;;53.40;25.07;;;;;;;7.83;100.00;98104.66;5011803;28;20618;-61
2022/01/10 06:39:41;;;;;;;50.07;23.67;;;;;;;7.76;100.00;98107.56;5012150;28;20288;-61
2022/01/10 06:42:09;;;;;;;47.90;23.07;;;;;;;7.84;100.00;98118.41;5012335;28;20694;-62
2022/01/10 06:44:36;;;;;;;45.77;22.53;;;;;;;7.80;100.00;98112.50;4996430;28;20595;-61
2022/01/10 06:47:03;;;;;;;45.17;22.30;;;;;;;7.69;100.00;98111.25;4992439;28;20194;-70
2022/01/10 06:49:30;;;;;;;47.97;23.73;;;;;;;7.85;100.00;98120.94;4992323;28;20198;-70
2022/01/10 06:51:57;;;;;;;51.53;24.43;;;;;;;7.78;100.00;98116.94;5002349;28;20201;-69
2022/01/10 06:54:24;;;;;;;50.97;22.57;;;;;;;7.82;100.00;98121.03;5011792;28;20202;-69
2022/01/10 06:56:53;;;;;;;47.83;22.40;;;;;;;7.83;100.00;98122.72;5012091;28;20713;-70
2022/01/10 06:59:20;;;;;;;44.87;21.77;;;;;;;7.75;100.00;98118.78;5012560;28;20288;-69
2022/01/10 07:01:47;;;;;;;53.13;23.90;;;;;;;7.77;100.00;98123.00;5011754;28;20209;-62
2022/01/10 07:04:14;;;;;;;51.20;22.07;;;;;;;7.67;100.00;98103.59;5011385;28;20200;-62
2022/01/10 07:06:42;;;;;;;50.33;24.50;;;;;;;7.77;100.00;98119.56;5011436;28;20240;-60
2022/01/10 07:09:09;;;;;;;64.97;28.37;;;;;;;7.76;100.00;98123.88;5011790;28;20692;-61
2022/01/10 07:11:36;;;;;;;56.27;24.93;;;;;;;7.72;100.00;98121.47;5011398;28;20202;-62
2022/01/10 07:14:05;;;;;;;54.93;25.67;;;;;;;7.70;100.00;98116.38;5011343;28;20210;-62
2022/01/10 07:16:32;;;;;;;46.33;24.07;;;;;;;7.78;100.00;98122.09;5011245;28;20261;-62
2022/01/10 07:18:59;;;;;;;53.70;24.70;;;;;;;7.81;100.00;98127.13;5011147;28;20202;-63
2022/01/10 07:21:26;;;;;;;58.00;24.83;;;;;;;7.83;100.00;98130.47;5011521;28;20198;-69
2022/01/10 07:23:54;;;;;;;63.57;27.13;;;;;;;7.88;100.00;98123.41;5011504;28;20577;-68
2022/01/10 07:26:22;;;;;;;70.20;29.17;;;;;;;7.90;100.00;98131.91;5011429;28;20550;-68
2022/01/10 07:28:49;;;;;;;67.07;29.53;;;;;;;7.92;100.00;98127.53;5011216;28;20267;-69
2022/01/10 07:31:17;;;;;;;77.43;30.67;;;;;;;7.94;100.00;98132.63;5011536;28;20673;-68
2022/01/10 07:33:44;;;;;;;77.03;31.70;;;;;;;7.96;100.00;98131.69;5011158;28;20190;-69
2022/01/10 07:36:11;;;;;;;77.27;30.13;;;;;;;8.00;100.00;98137.56;5011451;28;20230;-62
2022/01/10 07:38:38;;;;;;;68.93;28.33;;;;;;;7.99;100.00;98138.47;5010733;28;20206;-62
2022/01/10 07:41:07;;;;;;;67.73;27.87;;;;;;;7.89;100.00;98124.25;5011029;28;20198;-62
2022/01/10 07:43:35;;;;;;;57.40;26.40;;;;;;;7.96;100.00;98142.00;5010235;28;20198;-64
2022/01/10 07:46:02;;;;;;;63.00;26.37;;;;;;;7.98;100.00;98137.63;5010560;28;20198;-62
2022/01/10 07:48:33;;;;;;;59.50;26.43;;;;;;;8.02;100.00;98141.75;5010965;28;20583;-62
2022/01/10 07:51:00;;;;;;;58.43;26.70;;;;;;;7.95;100.00;98150.66;5010803;28;20230;-62
2022/01/10 07:53:26;;;;;;;63.87;27.80;;;;;;;7.90;100.00;98120.75;5010812;28;20202;-63
2022/01/10 07:55:53;;;;;;;63.60;30.77;;;;;;;8.01;100.00;98150.41;5010708;28;20194;-63
2022/01/10 07:58:20;;;;;;;69.90;31.57;;;;;;;8.09;100.00;98151.84;5010330;28;20232;-62
2022/01/10 08:00:47;;;;;;;74.73;32.87;;;;;;;8.11;100.00;98139.72;5010534;28;20233;-62
2022/01/10 08:03:14;;;;;;;67.50;31.70;;;;;;;8.13;100.00;98158.56;5010692;28;20653;-62
2022/01/10 08:05:43;;;;;;;57.30;28.87;;;;;;;8.09;100.00;98149.25;5010600;28;20769;-63
2022/01/10 08:08:10;;;;;;;70.83;30.63;;;;;;;8.10;100.00;98154.38;5010676;28;20198;-63
2022/01/10 08:10:37;;;;;;;60.80;29.13;;;;;;;8.17;100.00;98160.97;5010578;28;20599;-63
2022/01/10 08:13:05;;;;;;;64.90;29.33;;;;;;;8.16;100.00;98153.28;5010427;28;20213;-63
2022/01/10 08:15:32;;;;;;;84.60;40.13;;;;;;;8.25;100.00;98153.72;5010285;28;20221;-63
2022/01/10 08:17:59;;;;;;;69.07;33.73;;;;;;;8.11;100.00;98127.63;5010497;28;20261;-62
2022/01/10 08:20:27;;;;;;;65.73;28.50;;;;;;;8.23;100.00;98159.91;4994989;28;20309;-68
2022/01/10 08:22:55;;;;;;;61.57;26.77;;;;;;;8.17;100.00;98158.38;4992060;28;20222;-69
2022/01/10 08:25:22;;;;;;;58.57;27.63;;;;;;;8.24;100.00;98156.41;5010362;28;20284;-70
2022/01/10 08:27:50;;;;;;;68.87;27.10;;;;;;;8.22;100.00;98158.22;5011003;28;20244;-69
2022/01/10 08:30:17;;;;;;;65.33;28.53;;;;;;;7.99;100.00;98126.38;5010856;28;20194;-63
2022/01/10 08:32:49;;;;;;;65.27;26.37;;;;;;;8.23;100.00;98152.13;5010351;28;20200;-63
2022/01/10 08:35:17;;;;;;;59.47;27.30;;;;;;;8.12;100.00;98155.16;5010703;28;20197;-64
2022/01/10 08:37:44;;;;;;;67.23;28.70;;;;;;;8.21;100.00;98149.63;5010114;28;20230;-59
2022/01/10 08:40:13;;;;;;;77.80;32.77;;;;;;;8.28;100.00;98148.44;5010089;28;20586;-64
2022/01/10 08:42:40;;;;;;;69.97;29.40;;;;;;;8.32;100.00;98149.19;5010508;28;20202;-69
2022/01/10 08:45:09;;;;;;;63.00;27.30;;;;;;;8.31;100.00;98150.06;5010638;28;20225;-69
2022/01/10 08:47:36;;;;;;;58.57;25.93;;;;;;;8.25;100.00;98145.97;5009811;28;20205;-68
2022/01/10 08:50:04;;;;;;;63.27;27.27;;;;;;;8.03;100.00;98117.59;5024180;28;20581;-63
2022/01/10 08:52:31;;;;;;;58.63;25.40;;;;;;;8.24;100.00;98143.47;5009850;28;20200;-61
2022/01/10 08:54:58;;;;;;;66.73;27.67;;;;;;;8.19;100.00;98140.22;5009660;28;20209;-59
2022/01/10 08:57:27;;;;;;;70.20;28.07;;;;;;;8.08;100.00;98145.84;5013648;28;20225;-60
2022/01/10 08:59:54;;;;;;;72.63;28.93;;;;;;;8.16;100.00;98148.09;5007223;28;20205;-60
2022/01/10 09:02:21;;;;;;;66.30;28.07;;;;;;;8.18;100.00;98136.81;5009726;28;20594;-59
2022/01/10 09:04:48;;;;;;;67.23;30.70;;;;;;;8.24;100.00;98141.72;4994349;28;20238;-57
2022/01/10 09:07:15;;;;;;;75.60;30.27;;;;;;;8.23;100.00;98144.38;4994077;28;20286;-60
2022/01/10 09:09:42;;;;;;;71.20;32.20;;;;;;;8.16;100.00;98137.75;4994046;28;20209;-62
2022/01/10 09:12:10;;;;;;;71.37;32.83;;;;;;;8.19;100.00;98145.41;4994053;28;20197;-62
2022/01/10 09:14:38;;;;;;;69.03;29.47;;;;;;;8.23;100.00;98136.63;4994042;28;20194;-58
2022/01/10 09:17:06;;;;;;;68.70;30.47;;;;;;;8.28;100.00;98142.44;4993887;28;20700;-60
2022/01/10 09:19:33;;;;;;;60.90;28.37;;;;;;;8.26;100.00;98128.72;4994001;28;20782;-68
2022/01/10 09:22:00;;;;;;;71.97;34.17;;;;;;;8.23;100.00;98134.03;4994040;28;20321;-67
2022/01/10 09:24:27;;;;;;;64.23;30.03;;;;;;;8.19;100.00;98135.91;4993404;28;20313;-67
2022/01/10 09:26:54;;;;;;;58.60;26.63;;;;;;;8.28;100.00;98134.69;4993908;28;20237;-67
2022/01/10 09:29:21;;;;;;;57.87;27.57;;;;;;;8.34;100.00;98142.22;4993808;28;20318;-67
2022/01/10 09:31:49;;;;;;;57.07;27.77;;;;;;;8.30;100.00;98138.03;5001109;28;20222;-65
2022/01/10 09:34:16;;;;;;;54.10;24.60;;;;;;;8.29;100.00;98142.38;5033007;28;20200;-63
2022/01/10 09:36:43;;;;;;;51.23;23.60;;;;;;;8.26;100.00;98139.91;5032873;28;20225;-61
2022/01/10 09:39:13;;;;;;;50.07;24.30;;;;;;;8.07;100.00;98120.06;5032872;28;20201;-58
2022/01/10 09:41:40;;;;;;;52.47;23.20;;;;;;;8.26;100.00;98139.06;5032845;28;20201;-58
2022/01/10 09:44:07;;;;;;;41.57;21.70;;;;;;;8.23;100.00;98134.88;5032919;28;20194;-61
2022/01/10 09:46:35;;;;;;;48.27;23.23;;;;;;;8.12;100.00;98107.81;5032845;28;20599;-62
2022/01/10 09:49:05;;;;;;;49.03;23.97;;;;;;;8.37;100.00;98126.56;5032800;28;20669;-63
2022/01/10 09:51:33;;;;;;;47.33;23.60;;;;;;;8.34;100.00;98126.72;5032750;28;20205;-62
2022/01/10 09:54:02;;;;;;;48.27;22.93;;;;;;;8.20;100.00;98123.81;5032797;28;20206;-60
2022/01/10 09:56:30;;;;;;;47.20;24.13;;;;;;;8.32;100.00;98125.94;5032560;28;20197;-64
2022/01/10 09:58:58;;;;;;;40.83;21.60;;;;;;;8.36;100.00;98119.72;5032651;28;20231;-66
2022/01/10 10:01:27;;;;;;;49.23;23.20;;;;;;;8.43;100.00;98122.91;5032633;28;20700;-62
2022/01/10 10:03:58;;;;;;;45.77;22.80;;;;;;;8.48;100.00;98118.34;5032618;28;20204;-63
2022/01/10 10:06:29;;;;;;;43.80;23.50;;;;;;;8.47;100.00;98125.28;5032243;28;20610;-63
2022/01/10 10:08:59;;;;;;;45.83;23.23;;;;;;;8.33;100.00;98091.44;5010006;28;20190;-70
2022/01/10 10:11:40;;;;;;;40.93;23.17;;;;;;;8.49;100.00;98114.88;5003513;28;20712;-63
2022/01/10 10:14:08;;;;;;;43.80;23.03;;;;;;;8.45;100.00;98124.53;5003200;28;20214;-63
2022/01/10 10:16:37;;;;;;;43.83;23.77;;;;;;;8.30;100.00;98094.94;5003436;28;20198;-69
2022/01/10 10:19:05;;;;;;;42.10;23.57;;;;;;;8.48;100.00;98119.19;5003342;28;20308;-69
2022/01/10 10:21:34;;;;;;;44.47;23.77;;;;;;;8.51;100.00;98123.41;5001670;28;20195;-71
2022/01/10 10:24:04;;;;;;;46.33;23.73;;;;;;;8.51;100.00;98119.06;5009819;28;20198;-70
2022/01/10 10:26:32;;;;;;;46.87;22.33;;;;;;;8.45;100.00;98109.00;5012317;28;20237;-70
2022/01/10 10:28:59;;;;;;;42.93;23.87;;;;;;;8.53;100.00;98125.03;5012620;28;20586;-70
2022/01/10 10:31:29;;;;;;;39.97;22.40;;;;;;;8.55;100.00;98123.22;5012394;28;20205;-70
2022/01/10 10:33:57;;;;;;;36.57;21.07;;;;;;;8.54;100.00;98118.94;5012457;28;20194;-70
2022/01/10 10:36:25;;;;;;;36.00;20.53;;;;;;;8.54;100.00;98125.88;5012229;28;20244;-63
2022/01/10 10:38:55;;;;;;;30.87;18.87;;;;;;;8.40;100.00;98100.59;5012120;28;20218;-62
2022/01/10 10:41:22;;;;;;;34.83;19.30;;;;;;;8.53;100.00;98116.44;5012405;28;20674;-62
2022/01/10 10:43:51;;;;;;;32.40;18.07;;;;;;;8.50;100.00;98101.88;5012151;28;20630;-61
2022/01/10 10:46:19;;;;;;;30.93;17.93;;;;;;;8.54;100.00;98106.03;5011833;28;20198;-62
2022/01/10 10:48:49;;;;;;;32.50;17.50;;;;;;;8.57;100.00;98105.06;5011876;28;20252;-63
2022/01/10 10:51:16;;;;;;;30.63;16.77;;;;;;;8.50;100.00;98112.22;5011927;28;20202;-63
2022/01/10 10:53:43;;;;;;;30.30;17.90;;;;;;;8.46;100.00;98113.28;5011866;28;20202;-65
2022/01/10 10:56:12;;;;;;;26.93;16.37;;;;;;;8.55;100.00;98115.47;5011777;28;20198;-62
2022/01/10 10:58:40;;;;;;;29.90;16.97;;;;;;;8.58;100.00;98112.72;5011741;28;20221;-71
2022/01/10 11:01:08;;;;;;;31.60;17.87;;;;;;;8.53;100.00;98113.84;5012552;28;20194;-71
2022/01/10 11:03:35;;;;;;;27.23;14.80;;;;;;;8.55;100.00;98124.97;5012494;28;20201;-71
2022/01/10 11:06:04;;;;;;;26.43;16.83;;;;;;;8.53;100.00;98111.25;5012116;28;20288;-71
2022/01/10 11:08:33;;;;;;;27.17;16.40;;;;;;;8.57;100.00;98100.72;5011039;28;20553;-71
2022/01/10 11:11:00;;;;;;;28.60;15.77;;;;;;;8.64;100.00;98117.66;5012597;28;20293;-70
2022/01/10 11:13:30;;;;;;;26.13;16.97;;;;;;;8.64;100.00;98115.06;5012134;28;20285;-72
2022/01/10 11:15:58;;;;;;;30.60;16.60;;;;;;;8.64;100.00;98109.03;5011646;28;20213;-64
2022/01/10 11:18:26;;;;;;;31.60;15.60;;;;;;;8.70;100.00;98119.94;5015671;28;20227;-63
2022/01/10 11:20:55;;;;;;;29.93;16.73;;;;;;;8.73;100.00;98112.06;5023075;28;20209;-63
2022/01/10 11:23:23;;;;;;;30.13;16.90;;;;;;;8.79;100.00;98110.13;5026590;28;20237;-71